Time;durP1;ratioP1;P1;durP2;ratioP2;P2;SDS_P1;SDS_P2;PMS_P1;PMS_P2;Temp;Humidity;BMP_temperature;BMP_pressure;BME280_temperature;BME280_humidity;BME280_pressure;Samples;Min_cycle;Max_cycle;Signal;HPM_P1;HPM_P2
2023/10/16 00:00:29;;;;;;;;;;;;;;;;;;5005862;28;19920;-90
2023/10/16 00:02:59;;;;;;;;;;;;;;;;;;5004760;28;19913;-89
2023/10/16 00:05:25;;;;;;;;;;;;;;;;;;5005389;28;19961;-89
2023/10/16 00:07:51;;;;;;;;;;;;;;;;;;4999735;28;19917;-90
2023/10/16 00:10:17;;;;;;;;;;;;;;;;;;5018278;28;19917;-90
2023/10/16 00:12:43;;;;;;;;;;;;;;;;;;5009225;28;20987;-90
2023/10/16 00:15:09;;;;;;;;;;;;;;;;;;5004140;28;19916;-91
2023/10/16 00:17:35;;;;;;;;;;;;;;;;;;5019829;28;20384;-91
2023/10/16 00:20:03;;;;;;;;;;;;;;;;;;5011381;28;19913;-91
2023/10/16 00:22:30;;;;;;;;;;;;;;;;;;5006441;28;19917;-91
2023/10/16 00:24:58;;;;;;;;;;;;;;;;;;5006267;28;20389;-91
2023/10/16 00:27:24;;;;;;;;;;;;;;;;;;5003525;28;19924;-91
2023/10/16 00:29:50;;;;;;;;;;;;;;;;;;5009243;28;20205;-89
2023/10/16 00:32:17;;;;;;;;;;;;;;;;;;5009135;28;19917;-89
2023/10/16 00:34:44;;;;;;;;;;;;;;;;;;5002700;28;19914;-92
2023/10/16 00:37:10;;;;;;;;;;;;;;;;;;5007874;28;19921;-90
2023/10/16 00:39:37;;;;;;;;;;;;;;;;;;5002636;28;19921;-89
2023/10/16 00:42:08;;;;;;;;;;;;;;;;;;5002945;28;19953;-91
2023/10/16 00:44:34;;;;;;;;;;;;;;;;;;5001127;28;20048;-89
2023/10/16 00:47:00;;;;;;;;;;;;;;;;;;5006085;28;19924;-90
2023/10/16 00:49:26;;;;;;;;;;;;;;;;;;5012126;28;19917;-89
2023/10/16 00:51:52;;;;;;;;;;;;;;;;;;5005209;28;20020;-89
2023/10/16 00:54:18;;;;;;;;;;;;;;;;;;5007018;28;20657;-90
2023/10/16 00:56:44;;;;;;;;;;;;;;;;;;5008350;28;20361;-89
2023/10/16 00:59:12;;;;;;;;;;;;;;;;;;5010139;28;19919;-89
2023/10/16 01:01:43;;;;;;;;;;;;;;;;;;5010820;28;19928;-90
2023/10/16 01:04:09;;;;;;;;;;;;;;;;;;5010197;28;20030;-89
2023/10/16 01:06:40;;;;;;;;;;;;;;;;;;5004763;28;20007;-89
2023/10/16 01:09:10;;;;;;;;;;;;;;;;;;5006698;28;19913;-90
2023/10/16 01:11:39;;;;;;;;;;;;;;;;;;5018738;28;20040;-89
2023/10/16 01:14:05;;;;;;;;;;;;;;;;;;5005315;28;20365;-90
2023/10/16 01:16:31;;;;;;;;;;;;;;;;;;5007322;28;19944;-89
2023/10/16 01:18:57;;;;;;;;;;;;;;;;;;5010746;28;19917;-89
2023/10/16 01:21:23;;;;;;;;;;;;;;;;;;5002874;28;19920;-89
2023/10/16 01:23:51;;;;;;;;;;;;;;;;;;5006887;28;20025;-90
2023/10/16 01:26:17;;;;;;;;;;;;;;;;;;5002638;28;19913;-89
2023/10/16 01:28:49;;;;;;;;;;;;;;;;;;5011335;28;19925;-88
2023/10/16 01:31:15;;;;;;;;;;;;;;;;;;5006242;28;19924;-89
2023/10/16 01:33:44;;;;;;;;;;;;;;;;;;5005968;28;20324;-90
2023/10/16 01:36:10;;;;;;;;;;;;;;;;;;5010435;28;19925;-91
2023/10/16 01:38:36;;;;;;;;;;;;;;;;;;5010714;28;19913;-91
2023/10/16 01:41:08;;;;;;;;;;;;;;;;;;5022191;28;19960;-91
2023/10/16 01:43:34;;;;;;;;;;;;;;;;;;5007613;28;19928;-91
2023/10/16 01:46:00;;;;;;;;;;;;;;;;;;5008285;28;19921;-92
2023/10/16 01:48:28;;;;;;;;;;;;;;;;;;5010098;28;19921;-91
2023/10/16 01:50:54;;;;;;;;;;;;;;;;;;5010532;28;19913;-91
2023/10/16 01:53:20;;;;;;;;;;;;;;;;;;5009380;28;20012;-92
2023/10/16 01:55:51;;;;;;;;;;;;;;;;;;5010299;28;19922;-92
2023/10/16 01:58:17;;;;;;;;;;;;;;;;;;5012555;28;19917;-92
2023/10/16 02:00:43;;;;;;;;;;;;;;;;;;5005182;28;19920;-92
2023/10/16 02:03:09;;;;;;;;;;;;;;;;;;5005535;28;19956;-91
2023/10/16 02:05:35;;;;;;;;;;;;;;;;;;5007985;28;20323;-93
2023/10/16 02:08:01;;;;;;;;;;;;;;;;;;5008390;28;19928;-92
2023/10/16 02:10:27;;;;;;;;;;;;;;;;;;5012429;28;19913;-92
2023/10/16 02:12:53;;;;;;;;;;;;;;;;;;5004593;28;19917;-91
2023/10/16 02:15:21;;;;;;;;;;;;;;;;;;5011421;28;19917;-91
2023/10/16 02:17:49;;;;;;;;;;;;;;;;;;5007973;28;19920;-92
2023/10/16 02:20:16;;;;;;;;;;;;;;;;;;5004457;28;19928;-92
2023/10/16 02:22:42;;;;;;;;;;;;;;;;;;5007989;28;20509;-92
2023/10/16 02:25:11;;;;;;;;;;;;;;;;;;5011324;28;19967;-91
2023/10/16 02:27:37;;;;;;;;;;;;;;;;;;5005213;28;20610;-91
2023/10/16 02:30:15;;;;;;;;;;;;;;;;;;5010456;28;19928;-91
2023/10/16 02:32:42;;;;;;;;;;;;;;;;;;5021723;28;20365;-92
2023/10/16 02:35:13;;;;;;;;;;;;;;;;;;5018751;28;19917;-92
2023/10/16 02:37:39;;;;;;;;;;;;;;;;;;5004639;28;19967;-91
2023/10/16 02:40:09;;;;;;;;;;;;;;;;;;5007210;28;19941;-91
2023/10/16 02:42:38;;;;;;;;;;;;;;;;;;5002849;28;19928;-91
2023/10/16 02:45:10;;;;;;;;;;;;;;;;;;5006387;28;20374;-91
2023/10/16 02:47:37;;;;;;;;;;;;;;;;;;5020661;28;19971;-92
2023/10/16 02:50:07;;;;;;;;;;;;;;;;;;5005642;28;19923;-91
2023/10/16 02:52:33;;;;;;;;;;;;;;;;;;5008332;28;19932;-92
2023/10/16 02:55:00;;;;;;;;;;;;;;;;;;5003707;28;19925;-92
2023/10/16 02:57:26;;;;;;;;;;;;;;;;;;5008730;28;20744;-92
2023/10/16 02:59:51;;;;;;;;;;;;;;;;;;5020830;28;20014;-91
2023/10/16 03:02:17;;;;;;;;;;;;;;;;;;5019590;28;19913;-90
2023/10/16 03:04:44;;;;;;;;;;;;;;;;;;5021053;28;19963;-91
2023/10/16 03:07:11;;;;;;;;;;;;;;;;;;5011828;28;19968;-91
2023/10/16 03:09:37;;;;;;;;;;;;;;;;;;5006282;28;19913;-91
2023/10/16 03:12:09;;;;;;;;;;;;;;;;;;5007427;28;19917;-91
2023/10/16 03:14:45;;;;;;;;;;;;;;;;;;5004861;28;19910;-91
2023/10/16 03:17:12;;;;;;;;;;;;;;;;;;5005482;28;19925;-90
2023/10/16 03:19:38;;;;;;;;;;;;;;;;;;5020063;28;19914;-91
2023/10/16 03:22:11;;;;;;;;;;;;;;;;;;5006160;28;19971;-91
2023/10/16 03:24:37;;;;;;;;;;;;;;;;;;5004631;28;20865;-92
2023/10/16 03:27:08;;;;;;;;;;;;;;;;;;5024803;28;20000;-91
2023/10/16 03:29:34;;;;;;;;;;;;;;;;;;5008521;28;19925;-92
2023/10/16 03:32:00;;;;;;;;;;;;;;;;;;5008202;28;19917;-92
2023/10/16 03:34:26;;;;;;;;;;;;;;;;;;5005743;28;19929;-91
2023/10/16 03:36:59;;;;;;;;;;;;;;;;;;5005933;28;20393;-92
2023/10/16 03:39:25;;;;;;;;;;;;;;;;;;5005650;28;19913;-92
2023/10/16 03:41:51;;;;;;;;;;;;;;;;;;5001529;28;20497;-91
2023/10/16 03:44:18;;;;;;;;;;;;;;;;;;5006001;28;20210;-92
2023/10/16 03:46:44;;;;;;;;;;;;;;;;;;5008045;28;19920;-92
2023/10/16 03:49:14;;;;;;;;;;;;;;;;;;5005877;28;19921;-92
2023/10/16 03:51:48;;;;;;;;;;;;;;;;;;5006657;28;20000;-92
2023/10/16 03:54:16;;;;;;;;;;;;;;;;;;5005798;28;20383;-92
2023/10/16 03:56:42;;;;;;;;;;;;;;;;;;5002990;28;20355;-92
2023/10/16 03:59:11;;;;;;;;;;;;;;;;;;5004955;28;20308;-92
2023/10/16 04:01:39;;;;;;;;;;;;;;;;;;5001004;28;19921;-92
2023/10/16 04:04:12;;;;;;;;;;;;;;;;;;5009162;28;19913;-92
2023/10/16 04:06:39;;;;;;;;;;;;;;;;;;5005718;28;20007;-92
2023/10/16 04:09:09;;;;;;;;;;;;;;;;;;5005819;28;19917;-91
2023/10/16 04:11:37;;;;;;;;;;;;;;;;;;5004262;28;19999;-90
2023/10/16 04:14:08;;;;;;;;;;;;;;;;;;5007918;28;19924;-91
2023/10/16 04:16:43;;;;;;;;;;;;;;;;;;5013539;28;19970;-91
2023/10/16 04:21:40;;;;;;;;;;;;;;;;;;5029852;28;19967;-91
2023/10/16 04:24:30;;;;;;;;;;;;;;;;;;5013623;28;20114;-91
2023/10/16 04:29:34;;;;;;;;;;;;;;;;;;5031916;28;19926;-90
2023/10/16 04:34:32;;;;;;;;;;;;;;;;;;5027417;28;19913;-92
2023/10/16 04:46:20;;;;;;;;;;;;;;;;;;4975924;28;19922;-92
2023/10/16 04:48:48;;;;;;;;;;;;;;;;;;4981326;28;19914;-92
2023/10/16 04:51:17;;;;;;;;;;;;;;;;;;4999170;28;19913;-93
2023/10/16 04:53:58;;;;;;;;;;;;;;;;;;5008792;28;19922;-90
2023/10/16 04:59:36;;;;;;;;;;;;;;;;;;5025376;28;19956;-90
2023/10/16 05:02:06;;;;;;;;;;;;;;;;;;5022157;28;20009;-91
2023/10/16 05:05:45;;;;;;;;;;;;;;;;;;5028684;28;19913;-91
2023/10/16 05:08:31;;;;;;;;;;;;;;;;;;5009025;28;19921;-91
2023/10/16 05:10:51;;;;;;;;;;;;;;;;;;5014495;28;19920;-90
2023/10/16 05:18:51;;;;;;;;;;;;;;;;;;5023712;28;19920;-87
2023/10/16 06:16:20;;;;;;;;;;;;;;;;;;5025875;28;19923;-86
2023/10/16 06:18:46;;;;;;;;;;;;;;;;;;5005740;28;19913;-86
2023/10/16 06:21:15;;;;;;;;;;;;;;;;;;5021469;28;19960;-86
2023/10/16 06:23:42;;;;;;;;;;;;;;;;;;5026409;28;20015;-87
2023/10/16 06:26:08;;;;;;;;;;;;;;;;;;5025393;28;20377;-86
2023/10/16 06:28:34;;;;;;;;;;;;;;;;;;5005626;28;19914;-86
2023/10/16 06:31:00;;;;;;;;;;;;;;;;;;5015169;28;19932;-87
2023/10/16 06:33:28;;;;;;;;;;;;;;;;;;5009965;28;19917;-87
2023/10/16 06:35:54;;;;;;;;;;;;;;;;;;5008434;28;19924;-87
2023/10/16 06:38:24;;;;;;;;;;;;;;;;;;5008893;28;19931;-87
2023/10/16 06:40:55;;;;;;;;;;;;;;;;;;5006715;28;19921;-86
2023/10/16 06:43:25;;;;;;;;;;;;;;;;;;5025381;28;19917;-86
2023/10/16 06:45:58;;;;;;;;;;;;;;;;;;5009684;28;19917;-88
2023/10/16 06:48:28;;;;;;;;;;;;;;;;;;5025295;28;20011;-86
2023/10/16 06:50:54;;;;;;;;;;;;;;;;;;5004506;28;19967;-87
2023/10/16 06:53:20;;;;;;;;;;;;;;;;;;5005503;28;19967;-87
2023/10/16 06:55:46;;;;;;;;;;;;;;;;;;5008027;28;19921;-89
2023/10/16 06:58:12;;;;;;;;;;;;;;;;;;5011009;28;20364;-90
2023/10/16 07:00:45;;;;;;;;;;;;;;;;;;5012686;28;19925;-90
2023/10/16 07:03:12;;;;;;;;;;;;;;;;;;5000061;28;19921;-91
2023/10/16 07:05:45;;;;;;;;;;;;;;;;;;5004717;28;20396;-90
2023/10/16 07:08:11;;;;;;;;;;;;;;;;;;5010836;28;20428;-90
2023/10/16 07:10:40;;;;;;;;;;;;;;;;;;5009412;28;19924;-90
2023/10/16 07:13:06;;;;;;;;;;;;;;;;;;5009297;28;19913;-90
2023/10/16 07:15:32;;;;;;;;;;;;;;;;;;5010468;28;19967;-90
2023/10/16 07:18:04;;;;;;;;;;;;;;;;;;5027815;28;19926;-91
2023/10/16 07:21:21;;;;;;;;;;;;;;;;;;5008665;28;22461;-91
2023/10/16 07:23:34;;;;;;;;;;;;;;;;;;5016380;28;19925;-91
2023/10/16 07:26:00;;;;;;;;;;;;;;;;;;5008623;28;19963;-91
2023/10/16 07:28:33;;;;;;;;;;;;;;;;;;5004933;28;20030;-93
2023/10/16 07:31:10;;;;;;;;;;;;;;;;;;5012214;28;20477;-92
2023/10/16 07:33:36;;;;;;;;;;;;;;;;;;4990738;28;20058;-93
2023/10/16 07:36:10;;;;;;;;;;;;;;;;;;4991362;28;19948;-92
2023/10/16 07:38:38;;;;;;;;;;;;;;;;;;4992214;28;19914;-92
2023/10/16 07:41:03;;;;;;;;;;;;;;;;;;4984523;28;19925;-93
2023/10/16 07:43:32;;;;;;;;;;;;;;;;;;4983473;28;19918;-92
2023/10/16 07:48:37;;;;;;;;;;;;;;;;;;5002681;28;19917;-92
2023/10/16 07:51:06;;;;;;;;;;;;;;;;;;4992700;28;19918;-92
2023/10/16 07:53:33;;;;;;;;;;;;;;;;;;4987177;28;19922;-92
2023/10/16 07:56:01;;;;;;;;;;;;;;;;;;4987916;28;19918;-92
2023/10/16 07:58:33;;;;;;;;;;;;;;;;;;4985296;28;19971;-91
2023/10/16 08:01:17;;;;;;;;;;;;;;;;;;4989451;28;19917;-92
2023/10/16 08:03:48;;;;;;;;;;;;;;;;;;4996586;28;20392;-91
2023/10/16 08:06:17;;;;;;;;;;;;;;;;;;4991200;28;19925;-92
2023/10/16 08:08:48;;;;;;;;;;;;;;;;;;4992809;28;20596;-91
2023/10/16 08:11:18;;;;;;;;;;;;;;;;;;4996063;28;19939;-92
2023/10/16 08:13:47;;;;;;;;;;;;;;;;;;4992182;28;19914;-92
2023/10/16 08:16:17;;;;;;;;;;;;;;;;;;4994788;28;20301;-92
2023/10/16 08:18:43;;;;;;;;;;;;;;;;;;4991217;28;19989;-92
2023/10/16 08:21:10;;;;;;;;;;;;;;;;;;4993243;28;20004;-92
2023/10/16 08:23:37;;;;;;;;;;;;;;;;;;4993424;28;20378;-91
2023/10/16 08:26:28;;;;;;;;;;;;;;;;;;4990715;28;20397;-92
2023/10/16 08:28:54;;;;;;;;;;;;;;;;;;4986647;28;19924;-87
2023/10/16 08:31:23;;;;;;;;;;;;;;;;;;5010298;28;20401;-86
2023/10/16 08:33:49;;;;;;;;;;;;;;;;;;5010796;28;20603;-86
2023/10/16 08:36:18;;;;;;;;;;;;;;;;;;5010374;28;20428;-86
2023/10/16 08:38:52;;;;;;;;;;;;;;;;;;5011497;28;20004;-85
2023/10/16 08:41:18;;;;;;;;;;;;;;;;;;5013965;28;20336;-85
2023/10/16 08:43:54;;;;;;;;;;;;;;;;;;5010876;28;19920;-85
2023/10/16 08:46:34;;;;;;;;;;;;;;;;;;5008424;28;20317;-85
2023/10/16 08:49:01;;;;;;;;;;;;;;;;;;5013525;28;19925;-86
2023/10/16 08:51:30;;;;;;;;;;;;;;;;;;5005996;28;19917;-86
2023/10/16 08:53:59;;;;;;;;;;;;;;;;;;5023987;28;19944;-87
2023/10/16 08:56:25;;;;;;;;;;;;;;;;;;5005351;28;19917;-87
2023/10/16 08:58:53;;;;;;;;;;;;;;;;;;5012960;28;19921;-87
2023/10/16 09:01:19;;;;;;;;;;;;;;;;;;5009740;28;20330;-87
2023/10/16 09:03:46;;;;;;;;;;;;;;;;;;5007987;28;19914;-87
2023/10/16 09:06:13;;;;;;;;;;;;;;;;;;5008676;28;19917;-87
2023/10/16 09:08:41;;;;;;;;;;;;;;;;;;5011235;28;20019;-86
2023/10/16 09:11:07;;;;;;;;;;;;;;;;;;5011631;28;19913;-87
2023/10/16 09:13:36;;;;;;;;;;;;;;;;;;5008489;28;19917;-87
2023/10/16 09:16:02;;;;;;;;;;;;;;;;;;5009755;28;19932;-87
2023/10/16 09:18:31;;;;;;;;;;;;;;;;;;5023444;28;19918;-86
2023/10/16 09:21:00;;;;;;;;;;;;;;;;;;5012886;28;20009;-87
2023/10/16 09:23:26;;;;;;;;;;;;;;;;;;5008785;28;19953;-87
2023/10/16 09:25:55;;;;;;;;;;;;;;;;;;5008109;28;19947;-87
2023/10/16 09:28:22;;;;;;;;;;;;;;;;;;5005767;28;20407;-86
2023/10/16 09:30:49;;;;;;;;;;;;;;;;;;5008830;28;20484;-87
2023/10/16 09:33:15;;;;;;;;;;;;;;;;;;5015513;28;20299;-87
2023/10/16 09:35:44;;;;;;;;;;;;;;;;;;5010802;28;19976;-86
2023/10/16 09:38:15;;;;;;;;;;;;;;;;;;5010145;28;19920;-86
2023/10/16 09:40:44;;;;;;;;;;;;;;;;;;5009533;28;19987;-87
2023/10/16 09:43:24;;;;;;;;;;;;;;;;;;5012330;28;19913;-87
2023/10/16 09:46:10;;;;;;;;;;;;;;;;;;5006562;28;20299;-87
2023/10/16 09:48:35;;;;;;;;;;;;;;;;;;5025540;28;19921;-87
2023/10/16 09:51:01;;;;;;;;;;;;;;;;;;5013506;28;19971;-87
2023/10/16 09:53:30;;;;;;;;;;;;;;;;;;5006280;28;19917;-87
2023/10/16 09:55:58;;;;;;;;;;;;;;;;;;5008512;28;19921;-87
2023/10/16 09:58:28;;;;;;;;;;;;;;;;;;4999505;28;20279;-85
2023/10/16 10:01:00;;;;;;;;;;;;;;;;;;5005392;28;20357;-85
2023/10/16 10:03:26;;;;;;;;;;;;;;;;;;5026603;28;19941;-86
2023/10/16 10:06:08;;;;;;;;;;;;;;;;;;5009016;28;19971;-86
2023/10/16 10:11:26;;;;;;;;;;;;;;;;;;5024274;28;19979;-86
2023/10/16 10:14:09;;;;;;;;;;;;;;;;;;5004276;28;20008;-85
2023/10/16 10:16:35;;;;;;;;;;;;;;;;;;5025244;28;20365;-85
2023/10/16 10:19:04;;;;;;;;;;;;;;;;;;5013867;28;20151;-89
2023/10/16 10:21:34;;;;;;;;;;;;;;;;;;5005260;28;20028;-89
2023/10/16 10:24:03;;;;;;;;;;;;;;;;;;5003934;28;20012;-89
2023/10/16 10:26:29;;;;;;;;;;;;;;;;;;5008749;28;19913;-90
2023/10/16 10:28:55;;;;;;;;;;;;;;;;;;5009644;28;19928;-89
2023/10/16 10:31:22;;;;;;;;;;;;;;;;;;5010116;28;19924;-89
2023/10/16 10:33:51;;;;;;;;;;;;;;;;;;5011581;28;19913;-89
2023/10/16 10:36:18;;;;;;;;;;;;;;;;;;5005250;28;20373;-89
2023/10/16 10:38:46;;;;;;;;;;;;;;;;;;5009055;28;19917;-90
2023/10/16 10:41:18;;;;;;;;;;;;;;;;;;5009510;28;20454;-89
2023/10/16 10:43:46;;;;;;;;;;;;;;;;;;5009377;28;20292;-88
2023/10/16 10:46:12;;;;;;;;;;;;;;;;;;5009979;28;19928;-89
2023/10/16 10:48:38;;;;;;;;;;;;;;;;;;5009942;28;20395;-89
2023/10/16 10:51:05;;;;;;;;;;;;;;;;;;5009044;28;20472;-89
2023/10/16 10:53:33;;;;;;;;;;;;;;;;;;5006557;28;20003;-89
2023/10/16 10:55:59;;;;;;;;;;;;;;;;;;5010337;28;19951;-89
2023/10/16 10:58:25;;;;;;;;;;;;;;;;;;5009707;28;20012;-89
2023/10/16 11:00:58;;;;;;;;;;;;;;;;;;5010131;28;20034;-89
2023/10/16 11:06:15;;;;;;;;;;;;;;;;;;5027334;28;19924;-89
2023/10/16 11:08:41;;;;;;;;;;;;;;;;;;5012701;28;19924;-89
2023/10/16 11:11:09;;;;;;;;;;;;;;;;;;5007612;28;19952;-90
2023/10/16 11:13:37;;;;;;;;;;;;;;;;;;5011432;28;20307;-90
2023/10/16 11:16:07;;;;;;;;;;;;;;;;;;5009753;28;19921;-89
2023/10/16 11:18:37;;;;;;;;;;;;;;;;;;5003238;28;19924;-90
2023/10/16 11:21:06;;;;;;;;;;;;;;;;;;5007993;28;19940;-90
2023/10/16 11:23:33;;;;;;;;;;;;;;;;;;5003661;28;19910;-89
2023/10/16 11:25:59;;;;;;;;;;;;;;;;;;5010313;28;20312;-90
2023/10/16 11:28:32;;;;;;;;;;;;;;;;;;5008361;28;20415;-90
2023/10/16 11:30:58;;;;;;;;;;;;;;;;;;5012293;28;19917;-89
2023/10/16 11:33:24;;;;;;;;;;;;;;;;;;5007275;28;19924;-90
2023/10/16 11:35:50;;;;;;;;;;;;;;;;;;5002585;28;19925;-90
2023/10/16 11:38:24;;;;;;;;;;;;;;;;;;5005799;28;20562;-90
2023/10/16 11:40:50;;;;;;;;;;;;;;;;;;5004982;28;20002;-89
2023/10/16 11:43:19;;;;;;;;;;;;;;;;;;5006200;28;19917;-89
2023/10/16 11:45:45;;;;;;;;;;;;;;;;;;5019492;28;20392;-89
2023/10/16 11:50:51;;;;;;;;;;;;;;;;;;5026193;28;19923;-90
2023/10/16 11:53:23;;;;;;;;;;;;;;;;;;5009308;28;19966;-89
2023/10/16 11:55:49;;;;;;;;;;;;;;;;;;5004730;28;19928;-89
2023/10/16 11:58:16;;;;;;;;;;;;;;;;;;5007223;28;19913;-89
2023/10/16 12:00:45;;;;;;;;;;;;;;;;;;5002597;28;20278;-89
2023/10/16 12:03:14;;;;;;;;;;;;;;;;;;5007882;28;19913;-89
2023/10/16 12:05:42;;;;;;;;;;;;;;;;;;5008442;28;20365;-89
2023/10/16 12:08:08;;;;;;;;;;;;;;;;;;5005470;28;19909;-90
2023/10/16 12:10:34;;;;;;;;;;;;;;;;;;5023269;28;19925;-90
2023/10/16 12:13:00;;;;;;;;;;;;;;;;;;5005736;28;19918;-90
2023/10/16 12:15:25;;;;;;;;;;;;;;;;;;5010339;28;19924;-90
2023/10/16 12:17:55;;;;;;;;;;;;;;;;;;5007277;28;19921;-89
2023/10/16 12:20:21;;;;;;;;;;;;;;;;;;5003071;28;20376;-89
2023/10/16 12:22:47;;;;;;;;;;;;;;;;;;5009960;28;19975;-90
2023/10/16 12:25:13;;;;;;;;;;;;;;;;;;5004487;28;19917;-89
2023/10/16 12:27:39;;;;;;;;;;;;;;;;;;5006440;28;19956;-88
2023/10/16 12:30:12;;;;;;;;;;;;;;;;;;5009098;28;19913;-90
2023/10/16 12:32:38;;;;;;;;;;;;;;;;;;5005661;28;19921;-92
2023/10/16 12:35:08;;;;;;;;;;;;;;;;;;5006819;28;19921;-90
2023/10/16 12:37:34;;;;;;;;;;;;;;;;;;5006284;28;19917;-90
2023/10/16 12:40:24;;;;;;;;;;;;;;;;;;5008777;28;19921;-89
2023/10/16 12:42:46;;;;;;;;;;;;;;;;;;5027241;28;19913;-89
2023/10/16 12:45:12;;;;;;;;;;;;;;;;;;5029673;28;20429;-90
2023/10/16 12:47:38;;;;;;;;;;;;;;;;;;5012906;28;19983;-89
2023/10/16 12:50:04;;;;;;;;;;;;;;;;;;5015935;28;19979;-90
2023/10/16 12:52:30;;;;;;;;;;;;;;;;;;5010925;28;19917;-89
2023/10/16 12:55:00;;;;;;;;;;;;;;;;;;5013765;28;20384;-89
2023/10/16 12:57:28;;;;;;;;;;;;;;;;;;5028318;28;20360;-90
2023/10/16 12:59:56;;;;;;;;;;;;;;;;;;5017497;28;20463;-90
2023/10/16 13:02:25;;;;;;;;;;;;;;;;;;5012477;28;20304;-90
2023/10/16 13:04:51;;;;;;;;;;;;;;;;;;5010352;28;19921;-89
2023/10/16 13:07:18;;;;;;;;;;;;;;;;;;5013727;28;19912;-89
2023/10/16 13:09:44;;;;;;;;;;;;;;;;;;5011551;28;19972;-89
2023/10/16 13:12:10;;;;;;;;;;;;;;;;;;5026434;28;19956;-90
2023/10/16 13:14:36;;;;;;;;;;;;;;;;;;5012398;28;20008;-89
2023/10/16 13:17:08;;;;;;;;;;;;;;;;;;5013510;28;19949;-90
2023/10/16 13:19:34;;;;;;;;;;;;;;;;;;5010656;28;19917;-88
2023/10/16 13:22:07;;;;;;;;;;;;;;;;;;5003233;28;19921;-88
2023/10/16 13:24:35;;;;;;;;;;;;;;;;;;5010544;28;20330;-88
2023/10/16 13:27:01;;;;;;;;;;;;;;;;;;5012534;28;20004;-89
2023/10/16 13:29:37;;;;;;;;;;;;;;;;;;5016026;28;20023;-90
2023/10/16 13:32:03;;;;;;;;;;;;;;;;;;5029776;28;20011;-90
2023/10/16 13:34:29;;;;;;;;;;;;;;;;;;5006061;28;20071;-90
2023/10/16 13:37:08;;;;;;;;;;;;;;;;;;5025804;28;19998;-90
2023/10/16 13:39:38;;;;;;;;;;;;;;;;;;5022557;28;19917;-90
2023/10/16 13:42:08;;;;;;;;;;;;;;;;;;5010411;28;20436;-89
2023/10/16 13:44:35;;;;;;;;;;;;;;;;;;5022772;28;19917;-90
2023/10/16 13:47:04;;;;;;;;;;;;;;;;;;5005944;28;19945;-90
2023/10/16 13:49:30;;;;;;;;;;;;;;;;;;5023357;28;20377;-91
2023/10/16 13:51:57;;;;;;;;;;;;;;;;;;5027513;28;19917;-90
2023/10/16 13:54:24;;;;;;;;;;;;;;;;;;5010378;28;20285;-90
2023/10/16 13:56:50;;;;;;;;;;;;;;;;;;5019169;28;19928;-90
2023/10/16 13:59:18;;;;;;;;;;;;;;;;;;5006485;28;19920;-90
2023/10/16 14:01:44;;;;;;;;;;;;;;;;;;5013015;28;20368;-90
2023/10/16 14:04:21;;;;;;;;;;;;;;;;;;5027530;28;19952;-90
2023/10/16 14:06:51;;;;;;;;;;;;;;;;;;5027505;28;19917;-93
2023/10/16 14:09:21;;;;;;;;;;;;;;;;;;5011636;28;19913;-93
2023/10/16 14:11:47;;;;;;;;;;;;;;;;;;5008612;28;20015;-94
2023/10/16 14:14:18;;;;;;;;;;;;;;;;;;5009797;28;20000;-93
2023/10/16 14:16:46;;;;;;;;;;;;;;;;;;5004932;28;19917;-90
2023/10/16 14:19:13;;;;;;;;;;;;;;;;;;5011018;28;20014;-93
2023/10/16 14:21:40;;;;;;;;;;;;;;;;;;5006067;28;20372;-94
2023/10/16 14:24:06;;;;;;;;;;;;;;;;;;5007748;28;20094;-93
2023/10/16 14:26:34;;;;;;;;;;;;;;;;;;5010405;28;20008;-94
2023/10/16 14:28:59;;;;;;;;;;;;;;;;;;5030210;28;19925;-94
2023/10/16 14:31:28;;;;;;;;;;;;;;;;;;5010179;28;19921;-94
2023/10/16 14:33:54;;;;;;;;;;;;;;;;;;5014237;28;19917;-93
2023/10/16 14:36:24;;;;;;;;;;;;;;;;;;5012461;28;20263;-92
2023/10/16 14:38:50;;;;;;;;;;;;;;;;;;5007819;28;20412;-94
2023/10/16 14:41:17;;;;;;;;;;;;;;;;;;5016058;28;19912;-93
2023/10/16 14:43:45;;;;;;;;;;;;;;;;;;5007279;28;20353;-92
2023/10/16 14:46:11;;;;;;;;;;;;;;;;;;5014049;28;20448;-94
2023/10/16 14:48:37;;;;;;;;;;;;;;;;;;5006351;28;20008;-92
2023/10/16 14:51:04;;;;;;;;;;;;;;;;;;5019528;28;19917;-90
2023/10/16 14:53:30;;;;;;;;;;;;;;;;;;5011812;28;19925;-91
2023/10/16 14:55:56;;;;;;;;;;;;;;;;;;5007878;28;20635;-91
2023/10/16 14:58:23;;;;;;;;;;;;;;;;;;5009427;28;19917;-90
2023/10/16 15:00:50;;;;;;;;;;;;;;;;;;5015606;28;20381;-90
2023/10/16 15:03:16;;;;;;;;;;;;;;;;;;5011988;28;19925;-92
2023/10/16 15:05:43;;;;;;;;;;;;;;;;;;5010052;28;19975;-91
2023/10/16 15:08:12;;;;;;;;;;;;;;;;;;5011244;28;20002;-92
2023/10/16 15:10:40;;;;;;;;;;;;;;;;;;5008310;28;19913;-91
2023/10/16 15:13:06;;;;;;;;;;;;;;;;;;5003364;28;19967;-90
2023/10/16 15:15:32;;;;;;;;;;;;;;;;;;5002752;28;19972;-91
2023/10/16 15:17:59;;;;;;;;;;;;;;;;;;5004824;28;19971;-91
2023/10/16 15:20:26;;;;;;;;;;;;;;;;;;5007363;28;19952;-90
2023/10/16 15:22:52;;;;;;;;;;;;;;;;;;5007382;28;20392;-91
2023/10/16 15:25:18;;;;;;;;;;;;;;;;;;5007760;28;20011;-92
2023/10/16 15:27:46;;;;;;;;;;;;;;;;;;5007620;28;20262;-91
2023/10/16 15:30:12;;;;;;;;;;;;;;;;;;5009599;28;19918;-91
2023/10/16 15:32:43;;;;;;;;;;;;;;;;;;5007543;27;20316;-91
2023/10/16 15:35:09;;;;;;;;;;;;;;;;;;5006708;28;19956;-91
2023/10/16 15:37:40;;;;;;;;;;;;;;;;;;5006749;28;20574;-91
2023/10/16 15:40:06;;;;;;;;;;;;;;;;;;5010104;28;20183;-91
2023/10/16 15:42:32;;;;;;;;;;;;;;;;;;5006180;28;19962;-91
2023/10/16 15:44:58;;;;;;;;;;;;;;;;;;5007677;28;19956;-91
2023/10/16 15:47:26;;;;;;;;;;;;;;;;;;5006327;28;19921;-92
2023/10/16 15:49:52;;;;;;;;;;;;;;;;;;5006972;28;20463;-92
2023/10/16 15:52:24;;;;;;;;;;;;;;;;;;5005187;28;20423;-91
2023/10/16 15:54:50;;;;;;;;;;;;;;;;;;5006686;28;20000;-92
2023/10/16 15:57:16;;;;;;;;;;;;;;;;;;5004765;28;19964;-91
2023/10/16 15:59:45;;;;;;;;;;;;;;;;;;5009261;28;19921;-91
2023/10/16 16:02:16;;;;;;;;;;;;;;;;;;5006892;28;19918;-91
2023/10/16 16:04:44;;;;;;;;;;;;;;;;;;5006071;28;19961;-91
2023/10/16 16:07:10;;;;;;;;;;;;;;;;;;5009485;28;20599;-92
2023/10/16 16:09:36;;;;;;;;;;;;;;;;;;5003962;28;19952;-91
2023/10/16 16:12:02;;;;;;;;;;;;;;;;;;5008000;28;19921;-91
2023/10/16 16:14:31;;;;;;;;;;;;;;;;;;5008557;28;19914;-92
2023/10/16 16:16:58;;;;;;;;;;;;;;;;;;5003596;28;22214;-90
2023/10/16 16:19:24;;;;;;;;;;;;;;;;;;5005507;28;19913;-91
2023/10/16 16:21:51;;;;;;;;;;;;;;;;;;5007693;28;19928;-91
2023/10/16 16:24:17;;;;;;;;;;;;;;;;;;5017308;28;19917;-91
2023/10/16 16:26:43;;;;;;;;;;;;;;;;;;5003664;28;19925;-91
2023/10/16 16:29:09;;;;;;;;;;;;;;;;;;5007376;28;19909;-91
2023/10/16 16:31:35;;;;;;;;;;;;;;;;;;5027839;28;19921;-91
2023/10/16 16:34:01;;;;;;;;;;;;;;;;;;5014066;28;20284;-91
2023/10/16 16:36:28;;;;;;;;;;;;;;;;;;5022231;28;20322;-91
2023/10/16 16:38:55;;;;;;;;;;;;;;;;;;5009140;28;19913;-91
2023/10/16 16:41:22;;;;;;;;;;;;;;;;;;5027412;28;20571;-91
2023/10/16 16:43:48;;;;;;;;;;;;;;;;;;5006108;28;19913;-91
2023/10/16 16:46:14;;;;;;;;;;;;;;;;;;5021405;28;19914;-91
2023/10/16 16:48:42;;;;;;;;;;;;;;;;;;5007459;28;19949;-90
2023/10/16 16:51:12;;;;;;;;;;;;;;;;;;5006642;28;20016;-89
2023/10/16 16:53:38;;;;;;;;;;;;;;;;;;5011722;28;20054;-88
2023/10/16 16:56:04;;;;;;;;;;;;;;;;;;5011703;28;20007;-88
2023/10/16 16:58:30;;;;;;;;;;;;;;;;;;5008341;28;19913;-89
2023/10/16 17:00:56;;;;;;;;;;;;;;;;;;5024246;28;20333;-89
2023/10/16 17:03:22;;;;;;;;;;;;;;;;;;5007347;28;19944;-89
2023/10/16 17:05:48;;;;;;;;;;;;;;;;;;5006604;28;19922;-89
2023/10/16 17:08:16;;;;;;;;;;;;;;;;;;5023655;28;19936;-93
2023/10/16 17:10:44;;;;;;;;;;;;;;;;;;5027757;28;19921;-95
2023/10/16 17:13:10;;;;;;;;;;;;;;;;;;5015042;28;19972;-93
2023/10/16 17:15:37;;;;;;;;;;;;;;;;;;5012552;28;20417;-95
2023/10/16 17:18:03;;;;;;;;;;;;;;;;;;5011922;28;19928;-93
2023/10/16 17:20:29;;;;;;;;;;;;;;;;;;5028463;28;19947;-94
2023/10/16 17:22:56;;;;;;;;;;;;;;;;;;5027814;28;20371;-96
2023/10/16 17:25:22;;;;;;;;;;;;;;;;;;5016313;28;19924;-94
2023/10/16 17:27:49;;;;;;;;;;;;;;;;;;5014407;28;19917;-94
2023/10/16 17:30:15;;;;;;;;;;;;;;;;;;5004172;28;20391;-95
2023/10/16 17:32:41;;;;;;;;;;;;;;;;;;5035860;28;19943;-95
2023/10/16 17:35:09;;;;;;;;;;;;;;;;;;5006414;28;19914;-93
2023/10/16 17:37:36;;;;;;;;;;;;;;;;;;5014167;28;19925;-94
2023/10/16 17:40:06;;;;;;;;;;;;;;;;;;5016890;28;19921;-92
2023/10/16 17:42:32;;;;;;;;;;;;;;;;;;5006693;28;19921;-96
2023/10/16 17:44:58;;;;;;;;;;;;;;;;;;5008235;28;19913;-94
2023/10/16 17:47:25;;;;;;;;;;;;;;;;;;5010735;28;19924;-92
2023/10/16 17:49:55;;;;;;;;;;;;;;;;;;5013796;28;19913;-91
2023/10/16 17:52:21;;;;;;;;;;;;;;;;;;5006734;28;21200;-92
2023/10/16 17:54:49;;;;;;;;;;;;;;;;;;5004607;28;19917;-92
2023/10/16 17:57:15;;;;;;;;;;;;;;;;;;5013014;28;19917;-91
2023/10/16 17:59:41;;;;;;;;;;;;;;;;;;5012735;28;19919;-92
2023/10/16 18:02:13;;;;;;;;;;;;;;;;;;5010785;28;19917;-91
2023/10/16 18:04:40;;;;;;;;;;;;;;;;;;5013530;28;19925;-90
2023/10/16 18:07:06;;;;;;;;;;;;;;;;;;5012515;28;19917;-91
2023/10/16 18:09:34;;;;;;;;;;;;;;;;;;5009632;28;19917;-92
2023/10/16 18:12:03;;;;;;;;;;;;;;;;;;5009662;28;19909;-92
2023/10/16 18:14:29;;;;;;;;;;;;;;;;;;5023964;28;20143;-91
2023/10/16 18:16:59;;;;;;;;;;;;;;;;;;5010080;28;19928;-91
2023/10/16 18:19:25;;;;;;;;;;;;;;;;;;5008002;28;19913;-88
2023/10/16 18:21:51;;;;;;;;;;;;;;;;;;5007735;28;19956;-88
2023/10/16 18:24:20;;;;;;;;;;;;;;;;;;5003485;28;19918;-88